Cumberland Gap, Tennessee
Current Conditions -  °F | °C
As of 7:35 PM on Monday 24 Nov 2014 (Local Time) from K1A6 Reporting Station
Clear Clear  
Wind Chill: 13°   Ceiling: Unl
Heat Index: 13°   Visibility: 10mi
Dew Point:   Wind: 3mph
Humidity: 50%   Direction: 220°SW
Pressure: 29.87"   Gusts: NA
Location:  36.6°N, 83.67°W
Report Text: K1A6 250035Z AUTO 22003KT 10SM CLR 13/03 A2987 RMK AO2 T01290028
Loading
Personal Weather Stations






























Interactive Weather Map New forecast layout! Learn more

10-Day Weather Forecast

Advertisements
Track Severe Weather on mobile